createdAt,value
2017-11-27T00:00:38.644Z,5.97
2017-11-27T00:03:06.060Z,5.92
2017-11-27T00:05:33.463Z,5.87
2017-11-27T00:08:00.867Z,5.82
2017-11-27T00:10:28.287Z,5.65
2017-11-27T00:12:55.698Z,5.79
2017-11-27T00:15:23.118Z,5.85
2017-11-27T00:17:50.520Z,5.81
2017-11-27T00:20:17.925Z,5.76
2017-11-27T00:22:45.336Z,5.80
2017-11-27T00:25:12.753Z,5.85
2017-11-27T00:27:40.164Z,5.80
2017-11-27T00:30:07.567Z,5.85
2017-11-27T00:32:34.969Z,5.93
2017-11-27T00:35:02.382Z,5.93
2017-11-27T00:37:29.781Z,5.95
2017-11-27T00:39:57.201Z,5.90
2017-11-27T00:42:24.594Z,5.98
2017-11-27T00:44:51.995Z,6.01
2017-11-27T00:47:19.432Z,6.03
2017-11-27T00:49:46.832Z,5.96
2017-11-27T00:52:14.261Z,6.02
2017-11-27T00:54:41.659Z,6.02
2017-11-27T00:57:09.057Z,6.07
2017-11-27T00:59:36.468Z,6.09
2017-11-27T01:02:03.853Z,6.05
2017-11-27T01:04:31.254Z,6.05
2017-11-27T01:06:58.643Z,5.99
2017-11-27T01:09:26.047Z,6.06
2017-11-27T01:11:53.448Z,6.04
2017-11-27T01:14:20.843Z,6.04
2017-11-27T01:16:48.252Z,6.01
2017-11-27T01:19:15.640Z,6.05
2017-11-27T01:21:43.033Z,6.00
2017-11-27T01:24:10.440Z,6.03
2017-11-27T01:26:37.831Z,6.06
2017-11-27T01:29:05.242Z,6.12
2017-11-27T01:31:32.644Z,6.02
2017-11-27T01:34:00.040Z,6.12
2017-11-27T01:36:27.447Z,6.19
2017-11-27T01:38:54.846Z,6.17
2017-11-27T01:41:22.256Z,6.18
2017-11-27T01:43:49.664Z,6.13
2017-11-27T01:46:17.059Z,6.25
2017-11-27T01:48:44.462Z,6.04
2017-11-27T01:51:11.856Z,6.15
2017-11-27T01:53:39.264Z,6.09
2017-11-27T01:56:06.673Z,6.10
2017-11-27T01:58:34.085Z,6.12
2017-11-27T02:01:01.497Z,6.11
2017-11-27T02:03:28.913Z,6.14
2017-11-27T02:05:56.308Z,6.12
2017-11-27T02:08:23.705Z,6.08
2017-11-27T02:10:51.115Z,6.07
2017-11-27T02:13:18.513Z,6.05
2017-11-27T02:15:45.912Z,6.06
2017-11-27T02:18:13.317Z,6.07
2017-11-27T02:20:40.711Z,6.01
2017-11-27T02:23:08.098Z,6.02
2017-11-27T02:25:35.505Z,5.99
2017-11-27T02:28:02.889Z,5.98
2017-11-27T02:30:30.299Z,5.99
2017-11-27T02:32:57.687Z,6.00
2017-11-27T02:35:25.083Z,6.00
2017-11-27T02:37:53.721Z,6.00
2017-11-27T02:40:21.129Z,6.03
2017-11-27T02:42:48.538Z,6.03
2017-11-27T02:45:15.929Z,6.00
2017-11-27T02:47:43.330Z,6.03
2017-11-27T02:50:10.740Z,6.04
2017-11-27T02:52:38.138Z,6.03
2017-11-27T02:55:05.540Z,6.05
2017-11-27T02:57:32.941Z,6.05
2017-11-27T03:00:00.332Z,6.03
2017-11-27T03:02:27.719Z,6.05
2017-11-27T03:04:55.116Z,6.11
2017-11-27T03:07:22.508Z,6.05
2017-11-27T03:09:49.912Z,6.11
2017-11-27T03:12:17.312Z,6.09
2017-11-27T03:14:44.715Z,6.09
2017-11-27T03:17:12.112Z,6.08
2017-11-27T03:19:39.516Z,6.10
2017-11-27T03:22:06.922Z,6.09
2017-11-27T03:24:34.329Z,6.12
2017-11-27T03:27:01.734Z,6.09
2017-11-27T03:29:29.540Z,6.08
2017-11-27T03:31:56.933Z,6.06
2017-11-27T03:34:24.323Z,6.05
2017-11-27T03:36:51.727Z,5.94
2017-11-27T03:39:19.134Z,5.96
2017-11-27T03:41:46.528Z,6.00
2017-11-27T03:44:13.924Z,6.01
2017-11-27T03:46:41.362Z,6.01
2017-11-27T03:49:08.761Z,6.01
2017-11-27T03:51:36.156Z,5.97
2017-11-27T03:54:03.558Z,5.87
2017-11-27T03:56:30.943Z,5.77
2017-11-27T03:58:58.368Z,5.72
2017-11-27T04:01:25.766Z,5.63
2017-11-27T04:03:53.155Z,5.53
2017-11-27T04:06:20.555Z,5.44
2017-11-27T04:08:47.956Z,5.37
2017-11-27T04:11:15.375Z,5.28
2017-11-27T04:13:42.788Z,5.29
2017-11-27T04:16:10.182Z,5.25
2017-11-27T04:18:37.583Z,5.28
2017-11-27T04:21:04.992Z,5.25
2017-11-27T04:23:32.396Z,5.32
2017-11-27T04:25:59.788Z,5.28
2017-11-27T04:28:27.175Z,5.26
2017-11-27T04:30:54.569Z,5.23
2017-11-27T04:33:21.956Z,5.20
2017-11-27T04:35:49.344Z,5.17
2017-11-27T04:38:16.738Z,5.24
2017-11-27T04:40:44.137Z,5.25
2017-11-27T04:43:11.532Z,5.28
2017-11-27T04:45:38.924Z,5.33
2017-11-27T04:48:06.326Z,5.34
2017-11-27T04:50:33.716Z,5.35
2017-11-27T04:53:01.115Z,5.38
2017-11-27T04:55:28.517Z,5.44
2017-11-27T04:57:55.934Z,5.46
2017-11-27T05:00:23.327Z,5.48
2017-11-27T05:02:50.729Z,5.47
2017-11-27T05:05:18.130Z,5.49
2017-11-27T05:07:45.517Z,5.52
2017-11-27T05:10:12.924Z,5.55
2017-11-27T05:12:40.322Z,5.58
2017-11-27T05:15:07.728Z,5.60
2017-11-27T05:17:35.127Z,5.63
2017-11-27T05:20:02.520Z,5.65
2017-11-27T05:22:29.920Z,5.68
2017-11-27T05:24:57.321Z,5.70
2017-11-27T05:27:24.719Z,5.71
2017-11-27T05:29:52.124Z,5.73
2017-11-27T05:32:19.545Z,5.72
2017-11-27T05:34:46.938Z,5.73
2017-11-27T05:37:14.339Z,5.77
2017-11-27T05:39:41.727Z,5.81
2017-11-27T05:42:09.122Z,5.83
2017-11-27T05:44:36.523Z,5.85
2017-11-27T05:47:03.931Z,5.87
2017-11-27T05:49:31.403Z,5.89
2017-11-27T05:51:58.795Z,5.91
2017-11-27T05:54:26.175Z,5.97
2017-11-27T05:56:53.565Z,5.97
2017-11-27T05:59:20.956Z,6.00
2017-11-27T06:01:50.800Z,6.05
2017-11-27T06:04:18.189Z,6.04
2017-11-27T06:06:45.586Z,6.09
2017-11-27T06:09:12.987Z,6.08
2017-11-27T06:11:40.381Z,6.10
2017-11-27T06:14:07.785Z,6.10
2017-11-27T06:16:35.172Z,6.12
2017-11-27T06:19:02.571Z,6.12
2017-11-27T06:21:29.959Z,6.12
2017-11-27T06:23:57.355Z,6.16
2017-11-27T06:26:24.745Z,6.12
2017-11-27T06:28:52.144Z,6.13
2017-11-27T06:31:19.540Z,6.14
2017-11-27T06:33:46.936Z,6.15
2017-11-27T06:36:14.363Z,6.18
2017-11-27T06:38:41.749Z,6.17
2017-11-27T06:41:09.152Z,6.17
2017-11-27T06:43:36.544Z,6.18
2017-11-27T06:46:03.944Z,6.17
2017-11-27T06:48:31.347Z,6.15
2017-11-27T06:50:58.754Z,6.15
2017-11-27T06:53:26.155Z,6.20
2017-11-27T06:55:53.560Z,6.19
2017-11-27T06:58:20.947Z,6.20
2017-11-27T07:00:48.345Z,6.20
2017-11-27T07:03:15.740Z,6.20
2017-11-27T07:05:43.151Z,6.21
2017-11-27T07:08:10.542Z,6.17
2017-11-27T07:10:37.936Z,6.20
2017-11-27T07:13:05.338Z,6.18
2017-11-27T07:15:32.733Z,6.13
2017-11-27T07:18:00.128Z,6.13
2017-11-27T07:20:27.530Z,6.12
2017-11-27T07:22:54.928Z,6.10
2017-11-27T07:25:22.371Z,6.08
2017-11-27T07:27:49.768Z,6.06
2017-11-27T07:30:17.163Z,6.07
2017-11-27T07:32:44.561Z,6.07
2017-11-27T07:35:12.151Z,6.11
2017-11-27T07:40:43.600Z,6.09
2017-11-27T07:43:11.015Z,6.04
2017-11-27T07:45:38.464Z,6.07
2017-11-27T07:48:06.278Z,6.02
2017-11-27T07:50:33.676Z,6.03
2017-11-27T07:53:01.086Z,6.04
2017-11-27T07:55:28.485Z,6.04
2017-11-27T07:57:55.894Z,6.02
2017-11-27T08:00:23.326Z,6.01
2017-11-27T08:02:50.701Z,6.02
2017-11-27T08:05:18.155Z,6.02
2017-11-27T08:07:45.577Z,6.06
2017-11-27T08:10:12.970Z,5.98
2017-11-27T08:12:40.368Z,6.02
2017-11-27T08:15:07.785Z,6.01
2017-11-27T08:17:35.189Z,6.01
2017-11-27T08:20:02.584Z,6.09
2017-11-27T08:22:29.993Z,6.09
2017-11-27T08:24:57.414Z,6.05
2017-11-27T08:27:24.804Z,6.08
2017-11-27T08:29:52.219Z,6.13
2017-11-27T08:32:19.622Z,6.09
2017-11-27T08:34:47.046Z,6.10
2017-11-27T08:37:14.460Z,6.13
2017-11-27T08:39:41.868Z,6.12
2017-11-27T08:42:09.287Z,6.18
2017-11-27T08:44:36.695Z,6.17
2017-11-27T08:47:04.089Z,6.11
2017-11-27T08:49:31.490Z,6.16
2017-11-27T08:51:58.900Z,6.16
2017-11-27T08:54:26.340Z,6.15
2017-11-27T08:56:53.762Z,6.13
2017-11-27T08:59:21.417Z,6.07
2017-11-27T09:01:48.850Z,6.07
2017-11-27T09:04:16.278Z,6.10
2017-11-27T09:06:43.672Z,6.11
2017-11-27T09:09:11.080Z,6.14
2017-11-27T09:11:38.488Z,6.12
2017-11-27T09:14:06.268Z,6.18
2017-11-27T09:16:33.693Z,6.20
2017-11-27T09:19:01.121Z,6.23
2017-11-27T09:21:28.536Z,6.28
2017-11-27T09:23:55.962Z,6.24
2017-11-27T09:26:23.379Z,6.33
2017-11-27T09:28:50.783Z,6.37
2017-11-27T09:31:18.202Z,6.43
2017-11-27T09:33:45.612Z,6.46
2017-11-27T09:36:13.020Z,6.48
2017-11-27T09:38:40.428Z,6.51
2017-11-27T09:41:07.827Z,6.54
2017-11-27T09:43:35.248Z,6.57
2017-11-27T09:46:02.655Z,6.59
2017-11-27T09:48:30.079Z,6.60
2017-11-27T09:50:57.500Z,6.60
2017-11-27T09:53:24.942Z,6.69
2017-11-27T09:55:52.381Z,6.67
2017-11-27T09:58:19.779Z,6.73
2017-11-27T10:00:47.199Z,6.74
2017-11-27T10:03:14.644Z,6.74
2017-11-27T10:05:42.081Z,6.80
2017-11-27T10:08:09.472Z,6.86
2017-11-27T10:10:36.881Z,6.85
2017-11-27T10:13:04.271Z,6.84
2017-11-27T10:15:31.687Z,6.88
2017-11-27T10:17:59.113Z,6.77
2017-11-27T10:20:26.513Z,6.79
2017-11-27T10:22:53.962Z,6.89
2017-11-27T10:25:21.359Z,6.87
2017-11-27T10:27:48.791Z,6.92
2017-11-27T10:30:16.215Z,6.88
2017-11-27T10:32:43.636Z,6.90
2017-11-27T10:35:11.048Z,6.90
2017-11-27T10:37:38.435Z,6.92
2017-11-27T10:40:05.848Z,7.00
2017-11-27T10:42:33.233Z,7.04
2017-11-27T10:45:00.645Z,7.03
2017-11-27T10:47:28.043Z,7.02
2017-11-27T10:49:55.432Z,7.03
2017-11-27T10:52:22.827Z,7.04
2017-11-27T10:54:50.219Z,7.02
2017-11-27T10:57:17.650Z,7.01
2017-11-27T10:59:45.032Z,7.03
2017-11-27T11:02:12.429Z,7.05
2017-11-27T11:04:39.819Z,7.10
2017-11-27T11:07:07.204Z,7.07
2017-11-27T11:09:34.603Z,7.06
2017-11-27T11:12:01.997Z,7.05
2017-11-27T11:14:29.399Z,7.02
2017-11-27T11:16:56.792Z,7.09
2017-11-27T11:19:24.184Z,6.97
2017-11-27T11:21:51.585Z,6.99
2017-11-27T11:24:18.988Z,7.08
2017-11-27T11:26:46.377Z,7.09
2017-11-27T11:29:13.780Z,7.11
2017-11-27T11:31:41.191Z,7.04
2017-11-27T11:34:08.580Z,7.11
2017-11-27T11:36:35.967Z,7.15
2017-11-27T11:39:03.372Z,7.06
2017-11-27T11:41:30.767Z,7.12
2017-11-27T11:43:58.167Z,7.16
2017-11-27T11:46:25.562Z,7.13
2017-11-27T11:48:52.973Z,7.12
2017-11-27T11:51:20.359Z,7.15
2017-11-27T11:53:47.748Z,7.21
2017-11-27T11:56:15.148Z,7.18
2017-11-27T11:58:42.542Z,7.15
2017-11-27T12:01:09.936Z,7.11
2017-11-27T12:03:37.331Z,7.09
2017-11-27T12:06:04.739Z,7.07
2017-11-27T12:08:32.130Z,7.07
2017-11-27T12:10:59.524Z,7.09
2017-11-27T12:13:26.920Z,7.13
2017-11-27T12:15:54.312Z,7.08
2017-11-27T12:18:21.724Z,7.09
2017-11-27T12:20:49.117Z,7.14
2017-11-27T12:23:16.511Z,7.11
2017-11-27T12:25:44.331Z,7.02
2017-11-27T12:28:11.720Z,7.00
2017-11-27T12:30:39.126Z,7.04
2017-11-27T12:33:06.516Z,7.03
2017-11-27T12:35:33.911Z,6.97
2017-11-27T12:38:01.316Z,6.90
2017-11-27T12:40:28.708Z,7.01
2017-11-27T12:42:56.111Z,7.07
2017-11-27T12:45:23.499Z,7.03
2017-11-27T12:47:50.904Z,7.14
2017-11-27T12:50:18.338Z,7.09
2017-11-27T12:52:45.720Z,7.06
2017-11-27T12:55:13.115Z,7.14
2017-11-27T12:57:40.516Z,7.05
2017-11-27T13:00:07.913Z,7.08
2017-11-27T13:02:35.300Z,7.04
2017-11-27T13:05:02.699Z,7.15
2017-11-27T13:07:30.092Z,7.15
2017-11-27T13:09:57.483Z,7.07
2017-11-27T13:12:24.892Z,7.05
2017-11-27T13:14:52.286Z,7.15
2017-11-27T13:17:19.683Z,7.11
2017-11-27T13:19:47.087Z,7.06
2017-11-27T13:22:14.479Z,7.16
2017-11-27T13:24:41.867Z,7.18
2017-11-27T13:27:09.273Z,7.19
2017-11-27T13:29:36.660Z,7.25
2017-11-27T13:32:04.056Z,7.26
2017-11-27T13:34:31.460Z,7.30
2017-11-27T13:36:58.851Z,7.31
2017-11-27T13:39:26.239Z,7.27
2017-11-27T13:41:53.644Z,7.30
2017-11-27T13:44:21.035Z,7.28
2017-11-27T13:46:48.430Z,7.25
2017-11-27T13:49:15.828Z,7.24
2017-11-27T13:51:43.221Z,7.31
2017-11-27T13:54:10.657Z,7.31
2017-11-27T13:56:38.017Z,7.37
2017-11-27T13:59:05.403Z,7.32
2017-11-27T14:01:32.791Z,7.37
2017-11-27T14:04:00.179Z,7.36
2017-11-27T14:06:27.592Z,7.31
2017-11-27T14:08:54.979Z,7.38
2017-11-27T14:11:22.372Z,7.38
2017-11-27T14:13:49.760Z,7.34
2017-11-27T14:16:17.160Z,7.33
2017-11-27T14:18:44.560Z,7.42
2017-11-27T14:21:11.956Z,7.34
2017-11-27T14:23:39.381Z,7.44
2017-11-27T14:26:06.776Z,7.44
2017-11-27T14:28:34.158Z,7.43
2017-11-27T14:31:01.556Z,7.47
2017-11-27T14:33:28.950Z,7.50
2017-11-27T14:35:56.343Z,7.51
2017-11-27T14:38:23.740Z,7.56
2017-11-27T14:40:51.127Z,7.53
2017-11-27T14:43:18.531Z,7.52
2017-11-27T14:45:45.928Z,7.46
2017-11-27T14:48:13.316Z,7.52
2017-11-27T14:50:40.699Z,7.52
2017-11-27T14:53:08.139Z,7.51
2017-11-27T14:55:35.529Z,7.58
2017-11-27T14:58:02.916Z,7.51
2017-11-27T15:00:30.311Z,7.51
2017-11-27T15:02:57.708Z,7.52
2017-11-27T15:05:25.092Z,7.52
2017-11-27T15:07:52.493Z,7.49
2017-11-27T15:10:19.876Z,7.49
2017-11-27T15:12:47.272Z,7.41
2017-11-27T15:15:14.665Z,7.47
2017-11-27T15:17:42.043Z,7.45
2017-11-27T15:20:09.440Z,7.47
2017-11-27T15:22:36.833Z,7.35
2017-11-27T15:25:04.227Z,7.32
2017-11-27T15:27:31.627Z,7.37
2017-11-27T15:29:59.009Z,7.37
2017-11-27T15:32:26.425Z,7.30
2017-11-27T15:34:53.812Z,7.33
2017-11-27T15:37:21.195Z,7.28
2017-11-27T15:39:48.590Z,7.25
2017-11-27T15:42:15.973Z,7.30
2017-11-27T15:44:43.382Z,7.19
2017-11-27T15:47:10.763Z,7.27
2017-11-27T15:49:38.160Z,7.19
2017-11-27T15:52:05.559Z,7.23
2017-11-27T15:54:32.945Z,7.22
2017-11-27T15:57:00.350Z,7.25
2017-11-27T15:59:27.732Z,7.27
2017-11-27T16:01:55.132Z,7.26
2017-11-27T16:04:22.513Z,7.27
2017-11-27T16:06:49.906Z,7.30
2017-11-27T16:09:17.295Z,7.25
2017-11-27T16:11:44.685Z,7.25
2017-11-27T16:14:12.086Z,7.25
2017-11-27T16:16:39.473Z,7.19
2017-11-27T16:19:06.859Z,7.29
2017-11-27T16:21:34.265Z,7.26
2017-11-27T16:24:01.652Z,7.33
2017-11-27T16:26:29.057Z,7.29
2017-11-27T16:28:56.445Z,7.35
2017-11-27T16:31:23.835Z,7.30
2017-11-27T16:33:51.240Z,7.33
2017-11-27T16:36:18.632Z,7.29
2017-11-27T16:38:46.020Z,7.38
2017-11-27T16:41:13.440Z,7.40
2017-11-27T16:43:40.844Z,7.46
2017-11-27T16:46:08.233Z,7.43
2017-11-27T16:48:35.621Z,7.40
2017-11-27T16:51:03.008Z,7.44
2017-11-27T16:53:30.395Z,7.44
2017-11-27T16:55:57.789Z,7.44
2017-11-27T16:58:25.175Z,7.39
2017-11-27T17:00:53.226Z,7.37
2017-11-27T17:03:22.676Z,7.46
2017-11-27T17:05:51.103Z,7.42
2017-11-27T17:08:20.623Z,7.45
2017-11-27T17:10:52.914Z,7.53
2017-11-27T17:13:21.011Z,7.56
2017-11-27T17:15:50.868Z,7.56
2017-11-27T17:18:20.268Z,7.56
2017-11-27T17:20:47.768Z,7.53
2017-11-27T17:23:15.152Z,7.46
2017-11-27T17:25:42.549Z,7.51
2017-11-27T17:28:09.936Z,7.50
2017-11-27T17:30:37.333Z,7.48
2017-11-27T17:33:04.716Z,7.47
2017-11-27T17:35:32.120Z,7.52
2017-11-27T17:37:59.511Z,7.51
2017-11-27T17:40:26.895Z,7.57
2017-11-27T17:42:54.292Z,7.58
2017-11-27T17:45:21.679Z,7.62
2017-11-27T17:47:49.077Z,7.60
2017-11-27T17:50:16.467Z,7.60
2017-11-27T17:52:43.856Z,7.63
2017-11-27T17:55:11.244Z,7.62
2017-11-27T17:57:38.651Z,7.67
2017-11-27T18:00:06.032Z,7.70
2017-11-27T18:02:33.435Z,7.70
2017-11-27T18:05:00.837Z,7.68
2017-11-27T18:07:28.217Z,7.70
2017-11-27T18:09:55.624Z,7.74
2017-11-27T18:12:23.013Z,7.76
2017-11-27T18:14:50.412Z,7.77
2017-11-27T18:17:17.809Z,7.74
2017-11-27T18:19:45.205Z,7.77
2017-11-27T18:22:12.592Z,7.78
2017-11-27T18:24:39.974Z,7.79
2017-11-27T18:27:07.376Z,7.83
2017-11-27T18:29:34.770Z,7.89
2017-11-27T18:32:02.200Z,7.89
2017-11-27T18:34:29.588Z,7.94
2017-11-27T18:36:56.987Z,7.97
2017-11-27T18:39:24.385Z,7.99
2017-11-27T18:41:51.780Z,7.99
2017-11-27T18:44:19.179Z,8.05
2017-11-27T18:46:46.576Z,8.05
2017-11-27T18:49:13.987Z,8.07
2017-11-27T18:51:41.382Z,8.10
2017-11-27T18:54:08.791Z,8.11
2017-11-27T18:56:36.291Z,8.11
2017-11-27T18:59:03.994Z,8.11
2017-11-27T19:01:31.647Z,8.14
2017-11-27T19:03:59.652Z,8.18
2017-11-27T19:06:27.061Z,8.23
2017-11-27T19:08:54.532Z,8.23
2017-11-27T19:11:23.556Z,8.20
2017-11-27T19:13:50.964Z,8.24
2017-11-27T19:16:19.204Z,8.29
2017-11-27T19:18:46.598Z,8.25
2017-11-27T19:21:14.052Z,8.24
2017-11-27T19:23:42.261Z,8.31
2017-11-27T19:26:16.827Z,8.29
2017-11-27T19:28:48.209Z,8.31
2017-11-27T19:31:15.679Z,8.34
2017-11-27T19:33:43.102Z,8.36
2017-11-27T19:36:10.847Z,8.36
2017-11-27T19:38:38.308Z,8.39
2017-11-27T19:41:07.133Z,8.39
2017-11-27T19:43:34.635Z,8.40
2017-11-27T19:46:02.059Z,8.43
2017-11-27T19:48:29.463Z,8.43
2017-11-27T19:50:56.848Z,8.46
2017-11-27T19:53:24.275Z,8.43
2017-11-27T19:55:52.525Z,8.50
2017-11-27T19:58:19.907Z,8.49
2017-11-27T20:00:53.004Z,8.55
2017-11-27T20:03:20.396Z,8.55
2017-11-27T20:05:47.819Z,8.49
2017-11-27T20:08:15.200Z,8.50
2017-11-27T20:10:42.593Z,8.59
2017-11-27T20:13:09.981Z,8.56
2017-11-27T20:15:37.416Z,8.57
2017-11-27T20:18:04.834Z,8.64
2017-11-27T20:20:32.204Z,8.57
2017-11-27T20:23:00.049Z,8.69
2017-11-27T20:25:27.467Z,8.68
2017-11-27T20:27:54.893Z,8.79
2017-11-27T20:30:22.320Z,8.81
2017-11-27T20:32:49.731Z,8.78
2017-11-27T20:35:17.124Z,8.85
2017-11-27T20:37:44.511Z,8.80
2017-11-27T20:40:11.929Z,8.83
2017-11-27T20:42:39.353Z,8.88
2017-11-27T20:45:06.732Z,8.93
2017-11-27T20:47:34.166Z,8.90
2017-11-27T20:50:01.558Z,8.96
2017-11-27T20:52:28.944Z,8.93
2017-11-27T20:54:56.363Z,9.07
2017-11-27T20:57:23.744Z,9.03
2017-11-27T20:59:51.136Z,9.05
2017-11-27T21:02:18.541Z,9.19
2017-11-27T21:04:45.930Z,9.11
2017-11-27T21:07:13.342Z,9.19
2017-11-27T21:09:40.737Z,9.22
2017-11-27T21:12:08.127Z,9.23
2017-11-27T21:14:35.553Z,9.28
2017-11-27T21:17:02.982Z,9.30
2017-11-27T21:19:30.394Z,9.26
2017-11-27T21:21:57.792Z,9.32
2017-11-27T21:24:25.215Z,9.23
2017-11-27T21:26:52.607Z,9.28
2017-11-27T21:29:20.010Z,9.31
2017-11-27T21:31:47.403Z,9.22
2017-11-27T21:34:14.810Z,9.32
2017-11-27T21:36:42.192Z,9.30
2017-11-27T21:39:09.604Z,9.30
2017-11-27T21:41:37.001Z,9.28
2017-11-27T21:44:04.402Z,9.36
2017-11-27T21:46:31.797Z,9.34
2017-11-27T21:48:59.185Z,9.40
2017-11-27T21:51:26.583Z,9.47
2017-11-27T21:53:53.971Z,9.37
2017-11-27T21:56:21.389Z,9.45
2017-11-27T21:58:48.800Z,9.47
2017-11-27T22:01:16.208Z,9.36
2017-11-27T22:03:43.607Z,9.32
2017-11-27T22:06:11.033Z,9.30
2017-11-27T22:08:38.436Z,9.14
2017-11-27T22:11:05.840Z,9.07
2017-11-27T22:13:33.271Z,8.98
2017-11-27T22:16:00.666Z,8.94
2017-11-27T22:18:28.097Z,8.94
2017-11-27T22:20:55.520Z,8.84
2017-11-27T22:23:22.911Z,8.78
2017-11-27T22:25:50.355Z,8.71
2017-11-27T22:28:17.752Z,8.70
2017-11-27T22:30:45.173Z,8.64
2017-11-27T22:33:12.557Z,8.60
2017-11-27T22:35:39.950Z,8.58
2017-11-27T22:38:07.364Z,8.49
2017-11-27T22:40:34.771Z,8.51
2017-11-27T22:43:02.218Z,8.47
2017-11-27T22:45:29.595Z,8.44
2017-11-27T22:47:57.005Z,8.41
2017-11-27T22:50:24.395Z,8.32
2017-11-27T22:52:51.785Z,8.10
2017-11-27T22:55:19.185Z,7.90
2017-11-27T22:57:46.584Z,7.71
2017-11-27T23:00:14.014Z,7.39
2017-11-27T23:02:41.405Z,7.25
2017-11-27T23:05:08.812Z,7.24
2017-11-27T23:07:36.241Z,7.24
2017-11-27T23:10:03.645Z,7.35
2017-11-27T23:12:31.067Z,7.30
2017-11-27T23:14:58.455Z,7.26
2017-11-27T23:17:25.884Z,7.22
2017-11-27T23:19:53.290Z,7.16
2017-11-27T23:22:20.760Z,7.14
2017-11-27T23:24:48.151Z,7.11
2017-11-27T23:27:15.583Z,7.06
2017-11-27T23:29:42.972Z,7.06
2017-11-27T23:32:10.406Z,7.12
2017-11-27T23:34:37.824Z,7.13
2017-11-27T23:37:05.223Z,7.07
2017-11-27T23:39:32.640Z,6.95
2017-11-27T23:42:00.039Z,6.97
2017-11-27T23:44:27.459Z,7.02
2017-11-27T23:46:54.847Z,7.01
2017-11-27T23:49:22.242Z,7.02
2017-11-27T23:51:49.656Z,7.04
2017-11-27T23:54:17.066Z,7.07
2017-11-27T23:56:44.496Z,7.06
2017-11-27T23:59:11.897Z,7.13
